Time;durP1;ratioP1;P1;durP2;ratioP2;P2;SDS_P1;SDS_P2;PMS_P1;PMS_P2;Temp;Humidity;BMP_temperature;BMP_pressure;BME280_temperature;BME280_humidity;BME280_pressure;Samples;Min_cycle;Max_cycle;Signal;HPM_P1;HPM_P2
2021/08/18 00:02:04;;;;;;;10.05;6.50;;;;;;;;;;5053833;28;20104;-83
2021/08/18 00:04:31;;;;;;;20.27;5.28;;;;;;;;;;5056071;28;20103;-84
2021/08/18 00:07:03;;;;;;;8.45;5.30;;;;;;;;;;5058851;28;20516;-83
2021/08/18 00:09:29;;;;;;;10.77;4.50;;;;;;;;;;5058997;28;20079;-85
2021/08/18 00:11:55;;;;;;;11.02;5.30;;;;;;;;;;5057365;28;20037;-85
2021/08/18 00:14:20;;;;;;;10.20;5.35;;;;;;;;;;5054906;28;20040;-85
2021/08/18 00:16:46;;;;;;;10.75;5.43;;;;;;;;;;5055372;28;20036;-86
2021/08/18 00:19:12;;;;;;;13.73;5.72;;;;;;;;;;5054778;28;20104;-86
2021/08/18 00:21:41;;;;;;;10.35;5.47;;;;;;;;;;5056788;28;20029;-87
2021/08/18 00:24:07;;;;;;;13.57;6.97;;;;;;;;;;5056087;28;20032;-86
2021/08/18 00:26:33;;;;;;;12.50;7.35;;;;;;;;;;5058024;28;20025;-87
2021/08/18 00:29:03;;;;;;;13.60;6.70;;;;;;;;;;5058239;28;20025;-84
2021/08/18 00:31:30;;;;;;;12.45;6.88;;;;;;;;;;5057825;28;20087;-86
2021/08/18 00:33:56;;;;;;;13.00;8.50;;;;;;;;;;5055198;28;20469;-86
2021/08/18 00:36:21;;;;;;;10.80;5.82;;;;;;;;;;5055177;28;20082;-85
2021/08/18 00:38:50;;;;;;;10.13;4.93;;;;;;;;;;5057039;28;20032;-84
2021/08/18 00:41:21;;;;;;;8.85;4.95;;;;;;;;;;5067667;28;20025;-84
2021/08/18 00:43:47;;;;;;;12.73;5.25;;;;;;;;;;5057018;28;20029;-88
2021/08/18 00:46:13;;;;;;;17.08;5.45;;;;;;;;;;5056200;28;20048;-86
2021/08/18 00:48:39;;;;;;;10.50;4.78;;;;;;;;;;5056581;28;20029;-83
2021/08/18 00:51:04;;;;;;;9.65;5.55;;;;;;;;;;5053558;28;20025;-84
2021/08/18 00:53:30;;;;;;;11.60;5.50;;;;;;;;;;5055462;28;20042;-84
2021/08/18 00:55:57;;;;;;;12.32;6.13;;;;;;;;;;5055154;28;20074;-84
2021/08/18 00:58:23;;;;;;;9.25;4.93;;;;;;;;;;5055333;28;20031;-84
2021/08/18 01:00:48;;;;;;;13.05;5.50;;;;;;;;;;5055543;28;20044;-85
2021/08/18 01:03:14;;;;;;;8.52;4.75;;;;;;;;;;5056020;28;20468;-85
2021/08/18 01:05:40;;;;;;;10.38;5.00;;;;;;;;;;5054630;28;20036;-85
2021/08/18 01:08:06;;;;;;;9.68;5.82;;;;;;;;;;5055945;28;20021;-85
2021/08/18 01:10:34;;;;;;;11.07;4.95;;;;;;;;;;5055603;28;20536;-84
2021/08/18 01:13:00;;;;;;;11.88;5.63;;;;;;;;;;5055879;28;20098;-84
2021/08/18 01:15:28;;;;;;;12.27;6.45;;;;;;;;;;5054246;28;20102;-83
2021/08/18 01:17:57;;;;;;;10.38;5.95;;;;;;;;;;5055655;28;20029;-84
2021/08/18 01:20:29;;;;;;;8.90;4.75;;;;;;;;;;5055537;28;20029;-84
2021/08/18 01:22:55;;;;;;;12.23;5.40;;;;;;;;;;5055657;28;20024;-85
2021/08/18 01:25:21;;;;;;;10.88;6.78;;;;;;;;;;5055545;28;20025;-84
2021/08/18 01:27:53;;;;;;;10.52;5.93;;;;;;;;;;5055467;28;20083;-83
2021/08/18 01:30:21;;;;;;;10.57;5.65;;;;;;;;;;5055676;28;20064;-83
2021/08/18 01:32:53;;;;;;;10.10;5.13;;;;;;;;;;5055311;28;20047;-82
2021/08/18 01:35:25;;;;;;;10.23;5.43;;;;;;;;;;5055492;28;20074;-83
2021/08/18 01:37:51;;;;;;;9.82;5.50;;;;;;;;;;5055570;28;20443;-84
2021/08/18 01:40:17;;;;;;;11.85;6.22;;;;;;;;;;5055375;28;20021;-87
2021/08/18 01:42:43;;;;;;;10.45;5.95;;;;;;;;;;5055369;28;20048;-85
2021/08/18 01:45:10;;;;;;;11.93;5.90;;;;;;;;;;5053845;28;20032;-87
2021/08/18 01:47:36;;;;;;;9.98;5.43;;;;;;;;;;5055233;28;20025;-85
2021/08/18 01:50:03;;;;;;;9.88;6.25;;;;;;;;;;5054863;28;20100;-86
2021/08/18 01:52:28;;;;;;;11.35;5.38;;;;;;;;;;5055304;28;20021;-85
2021/08/18 01:54:54;;;;;;;9.85;5.43;;;;;;;;;;5054748;28;20029;-83
2021/08/18 01:57:20;;;;;;;8.27;6.53;;;;;;;;;;5054855;28;20025;-83
2021/08/18 01:59:46;;;;;;;10.38;5.68;;;;;;;;;;5053569;28;20075;-84
2021/08/18 02:02:11;;;;;;;10.20;5.60;;;;;;;;;;5054975;28;20025;-84
2021/08/18 02:04:37;;;;;;;10.13;6.18;;;;;;;;;;5054926;28;20025;-83
2021/08/18 02:07:03;;;;;;;9.55;5.50;;;;;;;;;;5055243;28;20029;-85
2021/08/18 02:09:29;;;;;;;10.25;6.03;;;;;;;;;;5054594;28;20032;-86
2021/08/18 02:12:03;;;;;;;11.52;5.93;;;;;;;;;;5056432;28;20028;-85
2021/08/18 02:14:30;;;;;;;10.75;5.82;;;;;;;;;;5054944;28;20031;-85
2021/08/18 02:16:56;;;;;;;8.77;5.22;;;;;;;;;;5055271;28;20025;-85
2021/08/18 02:19:21;;;;;;;12.43;6.80;;;;;;;;;;5054896;28;20029;-85
2021/08/18 02:21:47;;;;;;;13.73;7.68;;;;;;;;;;5056044;28;20497;-87
2021/08/18 02:24:15;;;;;;;12.18;6.35;;;;;;;;;;5056669;28;20036;-84
2021/08/18 02:26:44;;;;;;;13.75;6.25;;;;;;;;;;5059277;28;20059;-84
2021/08/18 02:29:09;;;;;;;12.43;7.70;;;;;;;;;;5057667;28;20029;-85
2021/08/18 02:31:35;;;;;;;14.05;8.32;;;;;;;;;;5057982;28;20060;-84
2021/08/18 02:34:00;;;;;;;11.80;6.13;;;;;;;;;;5055203;28;20049;-84
2021/08/18 02:36:26;;;;;;;13.35;7.70;;;;;;;;;;5054471;28;20031;-85
2021/08/18 02:38:52;;;;;;;14.88;8.52;;;;;;;;;;5053226;28;20025;-84
2021/08/18 02:41:17;;;;;;;12.48;8.70;;;;;;;;;;5055152;28;20075;-84
2021/08/18 02:43:43;;;;;;;12.05;6.22;;;;;;;;;;5053161;28;20461;-85
2021/08/18 02:46:09;;;;;;;13.65;8.10;;;;;;;;;;5058079;28;20472;-84
2021/08/18 02:48:34;;;;;;;12.15;8.60;;;;;;;;;;5057388;28;20469;-84
2021/08/18 02:51:00;;;;;;;13.80;8.40;;;;;;;;;;5058129;28;20029;-83
2021/08/18 02:53:25;;;;;;;17.90;7.45;;;;;;;;;;5055570;28;20062;-84
2021/08/18 02:55:51;;;;;;;12.07;6.07;;;;;;;;;;5054706;28;20110;-85
2021/08/18 02:58:17;;;;;;;15.60;7.07;;;;;;;;;;5057501;28;20028;-83
2021/08/18 03:00:43;;;;;;;17.83;8.27;;;;;;;;;;5056409;28;20104;-84
2021/08/18 03:03:09;;;;;;;12.70;6.50;;;;;;;;;;5055317;28;20477;-84
2021/08/18 03:05:34;;;;;;;14.60;6.30;;;;;;;;;;5055477;28;20029;-85
2021/08/18 03:08:00;;;;;;;16.40;7.97;;;;;;;;;;5052755;28;20103;-84
2021/08/18 03:10:26;;;;;;;13.50;6.78;;;;;;;;;;5057091;28;20049;-83
2021/08/18 03:12:51;;;;;;;16.75;7.22;;;;;;;;;;5058924;28;20052;-84
2021/08/18 03:15:17;;;;;;;18.50;7.75;;;;;;;;;;5055652;28;20024;-84
2021/08/18 03:17:45;;;;;;;20.63;9.18;;;;;;;;;;5056917;28;20104;-85
2021/08/18 03:20:18;;;;;;;18.17;9.15;;;;;;;;;;5056856;28;20041;-86
2021/08/18 03:22:44;;;;;;;16.95;8.82;;;;;;;;;;5042401;28;20029;-84
2021/08/18 03:25:10;;;;;;;17.95;10.20;;;;;;;;;;5052895;28;20564;-84
2021/08/18 03:27:36;;;;;;;21.85;11.18;;;;;;;;;;5052632;28;20052;-83
2021/08/18 03:30:08;;;;;;;21.67;11.07;;;;;;;;;;5059069;28;20457;-84
2021/08/18 03:32:37;;;;;;;24.17;12.13;;;;;;;;;;5055374;28;20064;-85
2021/08/18 03:35:04;;;;;;;31.80;13.48;;;;;;;;;;5057089;28;20477;-85
2021/08/18 03:37:30;;;;;;;23.02;11.55;;;;;;;;;;5057377;28;20029;-84
2021/08/18 03:39:56;;;;;;;23.67;9.27;;;;;;;;;;5058766;28;20115;-85
2021/08/18 03:42:22;;;;;;;24.25;8.85;;;;;;;;;;5057009;28;20040;-84
2021/08/18 03:44:47;;;;;;;18.92;8.93;;;;;;;;;;5052914;28;20535;-85
2021/08/18 03:47:13;;;;;;;20.00;8.90;;;;;;;;;;5054154;28;20028;-84
2021/08/18 03:49:39;;;;;;;26.27;10.32;;;;;;;;;;5053869;28;20047;-83
2021/08/18 03:52:06;;;;;;;19.88;9.32;;;;;;;;;;5053401;28;20511;-82
2021/08/18 03:54:32;;;;;;;23.33;8.98;;;;;;;;;;5053914;28;20029;-83
2021/08/18 03:56:58;;;;;;;27.45;9.60;;;;;;;;;;5053396;28;20036;-82
2021/08/18 03:59:24;;;;;;;27.95;9.80;;;;;;;;;;5058069;28;20107;-83
2021/08/18 04:01:50;;;;;;;20.83;10.00;;;;;;;;;;5053480;28;20065;-90
2021/08/18 04:04:16;;;;;;;14.55;7.70;;;;;;;;;;5053474;28;20098;-90
2021/08/18 04:06:42;;;;;;;16.23;9.65;;;;;;;;;;5053421;28;20028;-87
2021/08/18 04:09:07;;;;;;;23.85;7.78;;;;;;;;;;5053309;28;20013;-85
2021/08/18 04:11:33;;;;;;;27.30;10.63;;;;;;;;;;5052972;28;20453;-86
2021/08/18 04:13:59;;;;;;;21.17;8.25;;;;;;;;;;5053272;28;20114;-87
2021/08/18 04:16:24;;;;;;;24.75;9.73;;;;;;;;;;5056783;28;20022;-87
2021/08/18 04:18:50;;;;;;;30.77;9.65;;;;;;;;;;5056869;28;20516;-86
2021/08/18 04:21:16;;;;;;;25.02;8.40;;;;;;;;;;5056816;28;20055;-87
2021/08/18 04:23:41;;;;;;;32.13;8.98;;;;;;;;;;5056988;28;20031;-83
2021/08/18 04:26:07;;;;;;;25.10;7.80;;;;;;;;;;5057444;28;20027;-82
2021/08/18 04:28:33;;;;;;;20.63;8.82;;;;;;;;;;5060278;28;20025;-82
2021/08/18 04:30:58;;;;;;;44.33;8.32;;;;;;;;;;5076797;28;20044;-84
2021/08/18 04:33:24;;;;;;;16.98;7.53;;;;;;;;;;5076147;28;20017;-81
2021/08/18 04:35:50;;;;;;;16.85;7.07;;;;;;;;;;5080442;28;20031;-84
2021/08/18 04:38:15;;;;;;;15.35;7.35;;;;;;;;;;5062576;28;20037;-82
2021/08/18 04:40:41;;;;;;;17.73;7.53;;;;;;;;;;5057869;28;20025;-84
2021/08/18 04:43:10;;;;;;;15.57;7.93;;;;;;;;;;5057796;28;20391;-84
2021/08/18 04:45:36;;;;;;;19.35;9.25;;;;;;;;;;5057019;28;20063;-84
2021/08/18 04:48:01;;;;;;;18.92;11.07;;;;;;;;;;5057732;28;20029;-83
2021/08/18 04:50:27;;;;;;;14.57;8.95;;;;;;;;;;5056284;28;20469;-84
2021/08/18 04:52:53;;;;;;;13.10;7.85;;;;;;;;;;5056329;28;20021;-84
2021/08/18 04:55:18;;;;;;;16.15;8.98;;;;;;;;;;5054975;28;20021;-84
2021/08/18 04:57:44;;;;;;;15.50;8.73;;;;;;;;;;5056058;28;20031;-83
2021/08/18 05:00:10;;;;;;;14.40;8.35;;;;;;;;;;5055888;28;20018;-83
2021/08/18 05:02:36;;;;;;;14.15;8.10;;;;;;;;;;5056444;28;20029;-82
2021/08/18 05:05:11;;;;;;;15.20;8.05;;;;;;;;;;5062278;28;20067;-83
2021/08/18 05:07:48;;;;;;;17.90;7.90;;;;;;;;;;5064589;28;20451;-82
2021/08/18 05:10:17;;;;;;;15.73;7.65;;;;;;;;;;5065864;28;20044;-82
2021/08/18 05:12:43;;;;;;;14.70;7.93;;;;;;;;;;5065405;28;20029;-84
2021/08/18 05:15:12;;;;;;;15.95;7.72;;;;;;;;;;5061443;28;20035;-83
2021/08/18 05:17:46;;;;;;;13.45;7.38;;;;;;;;;;5064398;28;20029;-81
2021/08/18 05:20:14;;;;;;;16.80;6.63;;;;;;;;;;5062104;28;20063;-85
2021/08/18 05:22:40;;;;;;;15.10;7.78;;;;;;;;;;5061380;28;20033;-84
2021/08/18 05:25:12;;;;;;;14.85;7.10;;;;;;;;;;5057826;28;20109;-84
2021/08/18 05:27:38;;;;;;;13.68;6.70;;;;;;;;;;5063671;28;20028;-82
2021/08/18 05:30:09;;;;;;;11.05;6.05;;;;;;;;;;5059449;28;20092;-83
2021/08/18 05:32:35;;;;;;;10.68;5.90;;;;;;;;;;5058438;28;20025;-85
2021/08/18 05:35:02;;;;;;;11.55;6.53;;;;;;;;;;5058483;28;20028;-86
2021/08/18 05:37:28;;;;;;;11.95;6.05;;;;;;;;;;5060528;28;20045;-84
2021/08/18 05:39:53;;;;;;;12.52;7.28;;;;;;;;;;5057226;28;20052;-83
2021/08/18 05:42:19;;;;;;;14.65;6.68;;;;;;;;;;5059642;28;20025;-84
2021/08/18 05:44:51;;;;;;;14.93;7.28;;;;;;;;;;5057161;28;20053;-82
2021/08/18 05:47:19;;;;;;;11.82;6.68;;;;;;;;;;5056197;28;20123;-84
2021/08/18 05:49:45;;;;;;;16.52;7.65;;;;;;;;;;5055871;28;20039;-87
2021/08/18 05:52:10;;;;;;;31.25;17.95;;;;;;;;;;5057368;28;20115;-87
2021/08/18 05:54:44;;;;;;;59.22;28.35;;;;;;;;;;5057112;28;20362;-83
2021/08/18 05:57:09;;;;;;;49.80;27.02;;;;;;;;;;5055427;28;20113;-85
2021/08/18 05:59:35;;;;;;;41.58;23.02;;;;;;;;;;5056729;28;20481;-84
2021/08/18 06:02:00;;;;;;;45.17;22.10;;;;;;;;;;5055809;28;20107;-84
2021/08/18 06:04:26;;;;;;;32.03;16.35;;;;;;;;;;5056695;28;20028;-87
2021/08/18 06:06:54;;;;;;;21.70;10.80;;;;;;;;;;5056808;28;20021;-87
2021/08/18 06:09:20;;;;;;;18.55;10.38;;;;;;;;;;5056526;28;20046;-85
2021/08/18 06:11:45;;;;;;;14.75;7.40;;;;;;;;;;5055195;28;20045;-86
2021/08/18 06:14:11;;;;;;;15.70;8.65;;;;;;;;;;5056668;28;20029;-86
2021/08/18 06:16:36;;;;;;;16.77;9.30;;;;;;;;;;5055642;28;20111;-85
2021/08/18 06:19:02;;;;;;;16.95;8.50;;;;;;;;;;5059432;28;20104;-86
2021/08/18 06:21:28;;;;;;;15.23;7.72;;;;;;;;;;5055647;28;20025;-87
2021/08/18 06:23:57;;;;;;;17.08;9.48;;;;;;;;;;5057602;28;20025;-86
2021/08/18 06:26:23;;;;;;;19.40;10.73;;;;;;;;;;5058319;28;20029;-89
2021/08/18 06:28:48;;;;;;;14.05;8.10;;;;;;;;;;5056274;28;20021;-87
2021/08/18 06:31:20;;;;;;;17.58;8.50;;;;;;;;;;5058065;28;20017;-89
2021/08/18 06:33:47;;;;;;;21.65;13.65;;;;;;;;;;5062963;28;20126;-86
2021/08/18 06:36:13;;;;;;;10.63;6.15;;;;;;;;;;5056750;28;20112;-84
2021/08/18 06:38:39;;;;;;;16.17;7.28;;;;;;;;;;5057760;28;20128;-87
2021/08/18 06:41:07;;;;;;;10.98;5.20;;;;;;;;;;5059516;28;20036;-87
2021/08/18 06:43:33;;;;;;;13.75;7.80;;;;;;;;;;5057652;28;20059;-85
2021/08/18 06:45:58;;;;;;;13.85;6.07;;;;;;;;;;5060346;28;20021;-85
2021/08/18 06:48:24;;;;;;;15.52;5.85;;;;;;;;;;5054489;28;20043;-85
2021/08/18 06:50:49;;;;;;;11.18;5.32;;;;;;;;;;5056187;28;20124;-86
2021/08/18 06:53:18;;;;;;;13.98;5.82;;;;;;;;;;5057129;28;20025;-88
2021/08/18 06:55:44;;;;;;;9.38;4.22;;;;;;;;;;5055984;28;20373;-85
2021/08/18 06:58:09;;;;;;;12.45;5.68;;;;;;;;;;5056963;28;20021;-85
2021/08/18 07:00:38;;;;;;;13.07;8.43;;;;;;;;;;5060867;28;20435;-84
2021/08/18 07:03:04;;;;;;;9.05;5.22;;;;;;;;;;5056830;28;20021;-85
2021/08/18 07:05:36;;;;;;;10.25;7.90;;;;;;;;;;5061074;28;20082;-85
2021/08/18 07:08:05;;;;;;;9.70;4.68;;;;;;;;;;5060636;28;20084;-84
2021/08/18 07:10:30;;;;;;;11.30;4.65;;;;;;;;;;5054753;28;20048;-87
2021/08/18 07:12:57;;;;;;;7.88;4.30;;;;;;;;;;5055283;28;20346;-86
2021/08/18 07:15:40;;;;;;;11.05;4.88;;;;;;;;;;5060462;28;20047;-84
2021/08/18 07:18:06;;;;;;;8.18;5.28;;;;;;;;;;5058816;28;20050;-83
2021/08/18 07:20:32;;;;;;;9.77;4.72;;;;;;;;;;5057844;28;20503;-83
2021/08/18 07:22:57;;;;;;;9.95;4.85;;;;;;;;;;5057015;28;20029;-86
2021/08/18 07:25:23;;;;;;;9.40;5.05;;;;;;;;;;5054098;28;20035;-85
2021/08/18 07:27:49;;;;;;;12.15;5.55;;;;;;;;;;5055824;28;20546;-85
2021/08/18 07:30:14;;;;;;;10.27;4.85;;;;;;;;;;5053835;28;20021;-84
2021/08/18 07:32:43;;;;;;;12.85;5.65;;;;;;;;;;5056016;28;20029;-83
2021/08/18 07:35:08;;;;;;;;;;;;;;;;;;5055837;28;20398;-83
2021/08/18 07:37:34;;;;;;;;;;;;;;;;;;5056287;28;19913;-84
2021/08/18 07:39:59;;;;;;;;;;;;;;;;;;5057124;28;19912;-83
2021/08/18 07:42:25;;;;;;;;;;;;;;;;;;5057642;28;20015;-83
2021/08/18 07:44:53;;;;;;;;;;;;;;;;;;5057760;28;19938;-84
2021/08/18 07:47:22;;;;;;;;;;;;;;;;;;5059629;28;19936;-85
2021/08/18 07:49:48;;;;;;;;;;;;;;;;;;5059634;28;19912;-87
2021/08/18 07:55:49;;;;;;;;;;;;;;;;;;5005889;28;19952;-85
2021/08/18 07:58:18;;;;;;;;;;;;;;;;;;5058524;28;19913;-84
2021/08/18 08:09:47;;;;;;;7.45;3.67;;;;;;;;;;5147227;22;20069;-84
2021/08/18 08:12:13;;;;;;;11.30;5.40;;;;;;;;;;5041593;28;20026;-83
2021/08/18 08:14:39;;;;;;;8.35;5.93;;;;;;;;;;5041718;28;20021;-83
2021/08/18 08:17:04;;;;;;;9.30;4.40;;;;;;;;;;5039632;28;20033;-83
2021/08/18 08:19:33;;;;;;;18.92;5.63;;;;;;;;;;5040301;28;20026;-83
2021/08/18 08:21:59;;;;;;;8.02;5.32;;;;;;;;;;5043145;28;20021;-84
2021/08/18 08:30:28;;;;;;;9.95;4.43;;;;;;;;;;4960034;28;20058;-88
2021/08/18 08:32:56;;;;;;;10.60;4.80;;;;;;;;;;4999936;28;20077;-89
2021/08/18 08:36:07;;;;;;;9.73;4.57;;;;;;;;;;5002324;28;20030;-89
2021/08/18 08:49:56;;;;;;;12.25;4.82;;;;;;;;;;4978249;28;20041;-82
2021/08/18 08:52:23;;;;;;;9.30;5.20;;;;;;;;;;4977844;28;20035;-82
2021/08/18 08:54:48;;;;;;;8.93;4.97;;;;;;;;;;4977857;28;20050;-84
2021/08/18 08:57:14;;;;;;;10.68;5.45;;;;;;;;;;4975200;28;20503;-81
2021/08/18 08:59:40;;;;;;;8.07;4.05;;;;;;;;;;4958376;28;20042;-79
2021/08/18 09:02:07;;;;;;;8.40;5.15;;;;;;;;;;4975371;28;20038;-81
2021/08/18 09:04:36;;;;;;;8.13;4.53;;;;;;;;;;4976386;28;20031;-84
2021/08/18 09:07:12;;;;;;;11.00;5.00;;;;;;;;;;4984557;28;20058;-82
2021/08/18 09:09:42;;;;;;;11.10;5.15;;;;;;;;;;4977289;28;20031;-81
2021/08/18 09:12:13;;;;;;;10.90;5.70;;;;;;;;;;4975953;28;20052;-80
2021/08/18 09:14:40;;;;;;;10.60;4.80;;;;;;;;;;4979520;28;20074;-82
2021/08/18 09:17:31;;;;;;;8.68;4.50;;;;;;;;;;4961936;28;20045;-81
2021/08/18 09:20:18;;;;;;;11.15;4.47;;;;;;;;;;4976360;28;20038;-82
2021/08/18 09:22:48;;;;;;;10.65;6.07;;;;;;;;;;4981398;28;20097;-81
2021/08/18 09:25:27;;;;;;;9.05;4.53;;;;;;;;;;4976967;28;20038;-80
2021/08/18 09:28:01;;;;;;;8.18;5.47;;;;;;;;;;5057210;28;20020;-81
2021/08/18 09:30:37;;;;;;;7.22;4.05;;;;;;;;;;5056611;28;20067;-80
2021/08/18 09:33:14;;;;;;;9.07;4.50;;;;;;;;;;5059065;28;20072;-80
2021/08/18 09:35:41;;;;;;;9.43;4.07;;;;;;;;;;5059048;28;20021;-79
2021/08/18 09:38:09;;;;;;;7.38;4.22;;;;;;;;;;5058227;28;20071;-79
2021/08/18 09:40:38;;;;;;;7.57;4.88;;;;;;;;;;5057893;28;20051;-80
2021/08/18 09:43:25;;;;;;;10.80;4.38;;;;;;;;;;5038806;28;20025;-81
2021/08/18 09:45:58;;;;;;;9.95;4.45;;;;;;;;;;5055750;28;20032;-78
2021/08/18 09:48:25;;;;;;;6.75;3.78;;;;;;;;;;5055706;28;20064;-79
2021/08/18 09:50:59;;;;;;;11.65;5.50;;;;;;;;;;5055752;28;20025;-79
2021/08/18 09:53:26;;;;;;;9.85;5.57;;;;;;;;;;5055882;28;20020;-78
2021/08/18 09:56:00;;;;;;;9.45;5.15;;;;;;;;;;5055681;28;20021;-80
2021/08/18 09:58:37;;;;;;;10.32;5.05;;;;;;;;;;5055852;28;20029;-80
2021/08/18 10:01:10;;;;;;;9.15;5.15;;;;;;;;;;5056332;28;20535;-80
2021/08/18 10:03:44;;;;;;;9.63;4.82;;;;;;;;;;5038407;28;20056;-80
2021/08/18 10:06:12;;;;;;;7.68;4.55;;;;;;;;;;5057698;28;20064;-78
2021/08/18 10:08:41;;;;;;;19.80;14.82;;;;;;;;;;5056976;28;20023;-80
2021/08/18 10:11:09;;;;;;;15.10;13.38;;;;;;;;;;5056073;28;20029;-80
2021/08/18 10:13:35;;;;;;;7.00;4.40;;;;;;;;;;5057789;28;20172;-80
2021/08/18 10:16:01;;;;;;;8.43;5.63;;;;;;;;;;5059788;28;20056;-80
2021/08/18 10:18:29;;;;;;;8.02;3.63;;;;;;;;;;5056527;28;20119;-79
2021/08/18 10:21:00;;;;;;;8.70;3.63;;;;;;;;;;5039706;28;20021;-80
2021/08/18 10:23:46;;;;;;;9.35;4.45;;;;;;;;;;5039065;28;20029;-80
2021/08/18 10:26:34;;;;;;;9.13;4.35;;;;;;;;;;5038611;28;20032;-80
2021/08/18 10:29:04;;;;;;;;;;;;;;;;;;5056710;28;20056;-79
2021/08/18 10:31:42;;;;;;;8.20;4.68;;;;;;;;;;5056635;28;20027;-79
2021/08/18 10:34:33;;;;;;;9.82;3.75;;;;;;;;;;5057056;28;20477;-80
2021/08/18 10:37:03;;;;;;;10.65;3.75;;;;;;;;;;5056198;28;20069;-81
2021/08/18 10:39:36;;;;;;;7.88;3.70;;;;;;;;;;5054961;28;20040;-81
2021/08/18 10:42:09;;;;;;;8.38;4.78;;;;;;;;;;5054686;28;20021;-85
2021/08/18 10:44:42;;;;;;;10.05;5.13;;;;;;;;;;5042620;28;20032;-81
2021/08/18 10:47:27;;;;;;;6.57;3.03;;;;;;;;;;5051333;28;20041;-81
2021/08/18 10:49:57;;;;;;;10.07;3.75;;;;;;;;;;5059958;28;20029;-82
2021/08/18 10:52:29;;;;;;;8.75;4.38;;;;;;;;;;5062531;28;20049;-80
2021/08/18 10:55:06;;;;;;;10.85;4.28;;;;;;;;;;5064871;28;20020;-81
2021/08/18 10:57:39;;;;;;;8.77;4.60;;;;;;;;;;5059668;28;20033;-79
2021/08/18 11:03:34;;;;;;;6.90;3.35;;;;;;;;;;5058494;28;20037;-88
2021/08/18 11:06:49;;;;;;;7.10;3.67;;;;;;;;;;5056461;28;20393;-87
2021/08/18 11:09:52;;;;;;;8.10;4.22;;;;;;;;;;5056969;28;20404;-79
2021/08/18 11:12:39;;;;;;;8.35;3.15;;;;;;;;;;5054368;28;20033;-83
2021/08/18 11:15:20;;;;;;;5.95;3.35;;;;;;;;;;5057503;28;20485;-82
2021/08/18 11:17:48;;;;;;;10.55;3.90;;;;;;;;;;5058749;28;20047;-83
2021/08/18 11:20:27;;;;;;;9.10;4.30;;;;;;;;;;5059777;28;20025;-83
2021/08/18 11:23:02;;;;;;;8.68;2.97;;;;;;;;;;5057063;28;20025;-82
2021/08/18 11:25:44;;;;;;;10.07;5.28;;;;;;;;;;5057404;28;20473;-82
2021/08/18 11:28:21;;;;;;;5.97;2.58;;;;;;;;;;5058343;28;20055;-82
2021/08/18 11:31:05;;;;;;;7.85;4.05;;;;;;;;;;5061295;28;20115;-82
2021/08/18 11:33:32;;;;;;;7.70;3.67;;;;;;;;;;5056920;28;20029;-83
2021/08/18 11:36:00;;;;;;;7.45;3.50;;;;;;;;;;5055095;28;20021;-83
2021/08/18 11:38:26;;;;;;;7.05;2.83;;;;;;;;;;5060981;28;20080;-82
2021/08/18 11:40:53;;;;;;;6.68;3.50;;;;;;;;;;5057390;28;20025;-82
2021/08/18 11:43:38;;;;;;;8.18;3.30;;;;;;;;;;5057954;28;20032;-82
2021/08/18 11:46:04;;;;;;;6.68;3.22;;;;;;;;;;5054290;28;20025;-83
2021/08/18 11:48:31;;;;;;;7.03;3.33;;;;;;;;;;5054177;28;20035;-83
2021/08/18 11:50:59;;;;;;;7.07;3.03;;;;;;;;;;5053782;28;20033;-84
2021/08/18 11:53:26;;;;;;;6.32;3.20;;;;;;;;;;5053360;28;20075;-81
2021/08/18 11:56:03;;;;;;;6.53;2.92;;;;;;;;;;5055694;28;20031;-82
2021/08/18 11:58:34;;;;;;;11.93;3.97;;;;;;;;;;5054771;28;20031;-82
2021/08/18 12:01:01;;;;;;;6.47;3.17;;;;;;;;;;5054226;28;20123;-83
2021/08/18 12:03:31;;;;;;;6.38;2.38;;;;;;;;;;5053535;28;20036;-82
2021/08/18 12:06:03;;;;;;;7.45;2.47;;;;;;;;;;5054663;28;20036;-81
2021/08/18 12:08:40;;;;;;;6.90;3.00;;;;;;;;;;5054515;28;20120;-82
2021/08/18 12:11:08;;;;;;;9.45;3.33;;;;;;;;;;5054170;28;20029;-79
2021/08/18 12:13:38;;;;;;;8.18;3.67;;;;;;;;;;5055316;28;20044;-80
2021/08/18 12:16:21;;;;;;;7.43;2.53;;;;;;;;;;5056480;28;20036;-80
2021/08/18 12:18:47;;;;;;;7.22;3.03;;;;;;;;;;5055342;28;20028;-81
2021/08/18 12:21:21;;;;;;;11.68;4.65;;;;;;;;;;5038490;28;20369;-82
2021/08/18 12:23:48;;;;;;;7.40;3.30;;;;;;;;;;5053264;28;20033;-81
2021/08/18 12:26:28;;;;;;;9.02;3.70;;;;;;;;;;5054782;28;20108;-82
2021/08/18 12:28:55;;;;;;;9.35;3.63;;;;;;;;;;5055814;28;20028;-81
2021/08/18 12:31:21;;;;;;;8.00;4.22;;;;;;;;;;5055050;28;20040;-82
2021/08/18 12:34:09;;;;;;;7.85;3.45;;;;;;;;;;5054896;28;20469;-82
2021/08/18 12:36:36;;;;;;;7.85;4.28;;;;;;;;;;5058824;28;20358;-81
2021/08/18 12:39:04;;;;;;;8.23;3.95;;;;;;;;;;5057701;28;20049;-82
2021/08/18 12:41:33;;;;;;;8.05;3.67;;;;;;;;;;5058823;28;20025;-82
2021/08/18 12:44:14;;;;;;;7.68;3.75;;;;;;;;;;5057976;28;20031;-82
2021/08/18 12:46:41;;;;;;;9.45;4.90;;;;;;;;;;5058141;28;20049;-83
2021/08/18 12:49:27;;;;;;;9.15;4.93;;;;;;;;;;5058516;28;20028;-80
2021/08/18 12:54:28;;;;;;;7.65;3.78;;;;;;;;;;5107564;22;20060;-84
2021/08/18 12:56:54;;;;;;;8.38;3.95;;;;;;;;;;5056508;28;20037;-88
2021/08/18 12:59:25;;;;;;;8.30;4.70;;;;;;;;;;5059314;28;20033;-86
2021/08/18 13:01:50;;;;;;;8.63;4.05;;;;;;;;;;5061334;28;20021;-81
2021/08/18 13:04:19;;;;;;;10.10;4.50;;;;;;;;;;5059065;28;20358;-80
2021/08/18 13:06:44;;;;;;;10.55;3.50;;;;;;;;;;5042904;28;20025;-81
2021/08/18 13:09:10;;;;;;;10.40;3.63;;;;;;;;;;5056167;28;20021;-81
2021/08/18 13:11:36;;;;;;;7.22;3.80;;;;;;;;;;5059249;28;20068;-80
2021/08/18 13:14:05;;;;;;;9.55;3.53;;;;;;;;;;5041511;28;20045;-80
2021/08/18 13:16:30;;;;;;;15.57;4.38;;;;;;;;;;5059103;28;20021;-80
2021/08/18 13:18:56;;;;;;;7.35;3.92;;;;;;;;;;5038540;28;20025;-81
2021/08/18 13:21:22;;;;;;;9.48;4.68;;;;;;;;;;5061591;28;20499;-81
2021/08/18 13:23:48;;;;;;;8.40;3.78;;;;;;;;;;5060470;28;20021;-81
2021/08/18 13:26:13;;;;;;;8.38;3.63;;;;;;;;;;5043931;28;20104;-81
2021/08/18 13:28:40;;;;;;;6.70;3.10;;;;;;;;;;5056000;28;20060;-81
2021/08/18 13:31:06;;;;;;;8.13;3.05;;;;;;;;;;5055724;28;20074;-81
2021/08/18 13:33:32;;;;;;;6.45;3.33;;;;;;;;;;5055342;28;20031;-80
2021/08/18 13:36:00;;;;;;;12.30;2.88;;;;;;;;;;5056135;28;20021;-85
2021/08/18 13:38:25;;;;;;;7.78;3.83;;;;;;;;;;5055996;28;20053;-88
2021/08/18 13:40:51;;;;;;;9.25;4.03;;;;;;;;;;5037430;28;20064;-88
2021/08/18 13:43:17;;;;;;;8.20;3.63;;;;;;;;;;5037435;28;20087;-87
2021/08/18 13:45:43;;;;;;;10.13;4.47;;;;;;;;;;5036990;28;20036;-86
2021/08/18 13:48:08;;;;;;;10.85;3.53;;;;;;;;;;5037076;28;20033;-84
2021/08/18 13:50:34;;;;;;;12.30;3.78;;;;;;;;;;5055139;28;20055;-87
2021/08/18 13:52:59;;;;;;;7.43;3.85;;;;;;;;;;5037053;28;20068;-84
2021/08/18 13:55:25;;;;;;;10.48;4.15;;;;;;;;;;5055006;28;20025;-84
2021/08/18 13:57:51;;;;;;;9.63;4.70;;;;;;;;;;5054888;28;20029;-84
2021/08/18 14:00:17;;;;;;;13.52;3.70;;;;;;;;;;5054866;28;20025;-87
2021/08/18 14:02:42;;;;;;;6.55;3.72;;;;;;;;;;5037198;28;20033;-86
2021/08/18 14:05:08;;;;;;;9.25;4.57;;;;;;;;;;5037472;28;20028;-88
2021/08/18 14:07:36;;;;;;;11.35;4.90;;;;;;;;;;5037018;28;20051;-85
2021/08/18 14:10:02;;;;;;;12.20;4.18;;;;;;;;;;5059504;28;20025;-85
2021/08/18 14:12:28;;;;;;;9.10;4.10;;;;;;;;;;5055603;28;20477;-85
2021/08/18 14:14:54;;;;;;;7.57;4.25;;;;;;;;;;5056102;28;20031;-86
2021/08/18 14:17:20;;;;;;;10.48;5.88;;;;;;;;;;5056770;28;20464;-85
2021/08/18 14:19:46;;;;;;;8.85;4.38;;;;;;;;;;5045692;28;20024;-84
2021/08/18 14:22:11;;;;;;;11.13;5.90;;;;;;;;;;5059992;28;20032;-85
2021/08/18 14:24:37;;;;;;;17.48;4.03;;;;;;;;;;5044734;28;20025;-83
2021/08/18 14:27:03;;;;;;;10.38;5.07;;;;;;;;;;5046943;28;20461;-85
2021/08/18 14:29:28;;;;;;;12.73;5.60;;;;;;;;;;5057201;28;20025;-85
2021/08/18 14:31:54;;;;;;;11.55;6.68;;;;;;;;;;5038442;28;20028;-87
2021/08/18 14:34:22;;;;;;;9.52;5.20;;;;;;;;;;5055767;28;20075;-84
2021/08/18 14:36:48;;;;;;;12.68;6.45;;;;;;;;;;5021836;28;20440;-85
2021/08/18 14:39:14;;;;;;;11.95;5.30;;;;;;;;;;5038852;28;20029;-85
2021/08/18 14:41:41;;;;;;;13.20;6.07;;;;;;;;;;5056123;28;20025;-84
2021/08/18 14:44:07;;;;;;;13.57;6.72;;;;;;;;;;5036624;28;20115;-85
2021/08/18 14:46:33;;;;;;;12.35;4.97;;;;;;;;;;5053995;28;20032;-85
2021/08/18 14:48:59;;;;;;;12.90;6.40;;;;;;;;;;5036225;28;20029;-86
2021/08/18 14:51:25;;;;;;;12.63;5.28;;;;;;;;;;5054132;28;20028;-84
2021/08/18 14:53:51;;;;;;;13.23;5.88;;;;;;;;;;5053923;28;20045;-83
2021/08/18 14:56:17;;;;;;;16.80;7.22;;;;;;;;;;5053838;28;20029;-84
2021/08/18 14:58:43;;;;;;;11.00;6.28;;;;;;;;;;5035336;28;20420;-84
2021/08/18 15:01:09;;;;;;;12.63;6.22;;;;;;;;;;5054454;28;20032;-83
2021/08/18 15:03:39;;;;;;;11.88;6.03;;;;;;;;;;5035866;28;20087;-83
2021/08/18 15:06:05;;;;;;;19.02;7.28;;;;;;;;;;5053974;28;20025;-85
2021/08/18 15:08:31;;;;;;;17.00;6.88;;;;;;;;;;5036532;28;20116;-84
2021/08/18 15:10:57;;;;;;;15.13;6.07;;;;;;;;;;5035857;28;20036;-84
2021/08/18 15:28:56;;;;;;;;;;;;;;;;;;5153505;27;19968;-74
2021/08/18 15:31:21;;;;;;;;;;;;;;;;;;5153068;27;19923;-74
2021/08/18 15:33:47;;;;;;;;;;;;;;;;;;5151604;27;20124;-73
2021/08/18 15:36:12;;;;;;;;;;;;;;;;;;5151428;27;19919;-74
2021/08/18 15:38:38;;;;;;;;;;;;;;;;;;5151404;27;19968;-73